createdAt,value
2019-04-27T00:03:14.985Z,7.10
2019-04-27T00:07:56.266Z,7.10
2019-04-27T00:12:33.131Z,7.10
2019-04-27T00:17:44.855Z,7.10
2019-04-27T00:22:15.261Z,7.00
2019-04-27T00:26:51.052Z,7.00
2019-04-27T00:31:26.817Z,7.10
2019-04-27T00:36:08.681Z,7.00
2019-04-27T00:40:50.111Z,6.90
2019-04-27T00:45:25.888Z,7.00
2019-04-27T00:50:03.443Z,6.90
2019-04-27T00:54:39.125Z,6.90
2019-04-27T00:59:33.871Z,6.90
2019-04-27T01:04:16.312Z,7.00
2019-04-27T01:08:53.128Z,7.10
2019-04-27T01:13:29.542Z,7.00
2019-04-27T01:18:12.215Z,6.90
2019-04-27T01:22:43.683Z,6.90
2019-04-27T01:27:29.681Z,7.00
2019-04-27T01:32:06.680Z,7.00
2019-04-27T01:36:42.448Z,7.00
2019-04-27T01:41:19.162Z,7.10
2019-04-27T01:45:55.376Z,7.00
2019-04-27T01:50:31.153Z,7.10
2019-04-27T01:55:08.631Z,7.10
2019-04-27T01:59:44.853Z,7.10
2019-04-27T02:04:41.149Z,7.10
2019-04-27T02:09:18.948Z,7.10
2019-04-27T02:13:54.704Z,7.00
2019-04-27T02:18:37.451Z,7.20
2019-04-27T02:23:09.120Z,7.30
2019-04-27T02:27:49.080Z,7.30
2019-04-27T02:32:32.213Z,7.20
2019-04-27T02:37:10.184Z,7.20
2019-04-27T02:41:45.458Z,7.20
2019-04-27T02:46:21.426Z,7.20
2019-04-27T02:51:00.866Z,7.00
2019-04-27T02:55:36.650Z,6.90
2019-04-27T03:00:14.145Z,7.00
2019-04-27T03:04:50.216Z,7.20
2019-04-27T03:09:25.973Z,7.30
2019-04-27T03:14:34.910Z,7.20
2019-04-27T03:19:18.752Z,7.20
2019-04-27T03:23:54.104Z,7.10
2019-04-27T03:33:06.394Z,7.30
2019-04-27T03:37:42.854Z,7.10
2019-04-27T03:42:20.685Z,7.20
2019-04-27T03:46:56.646Z,7.30
2019-04-27T03:51:41.526Z,7.20
2019-04-27T03:56:27.486Z,7.20
2019-04-27T04:01:10.601Z,7.30
2019-04-27T04:05:45.634Z,7.20
2019-04-27T04:10:22.017Z,7.20
2019-04-27T04:14:59.866Z,7.20
2019-04-27T04:19:51.204Z,7.10
2019-04-27T04:24:12.983Z,7.00
2019-04-27T04:28:50.017Z,6.70
2019-04-27T04:33:26.199Z,6.80
2019-04-27T04:38:02.037Z,6.80
2019-04-27T04:42:43.600Z,6.70
2019-04-27T04:47:25.845Z,6.80
2019-04-27T04:52:01.606Z,6.80
2019-04-27T04:56:39.200Z,6.90
2019-04-27T05:01:14.867Z,7.00
2019-04-27T05:05:51.257Z,7.20
2019-04-27T05:10:28.776Z,7.10
2019-04-27T05:15:09.066Z,7.10
2019-04-27T05:19:45.674Z,7.10
2019-04-27T05:24:21.460Z,7.20
2019-04-27T05:28:59.118Z,7.20
2019-04-27T05:33:34.699Z,7.10
2019-04-27T05:38:13.065Z,7.30
2019-04-27T05:42:48.822Z,7.30
2019-04-27T05:47:51.876Z,7.30
2019-04-27T05:52:31.564Z,7.50
2019-04-27T05:57:07.405Z,7.50
2019-04-27T06:01:43.232Z,7.50
2019-04-27T06:06:19.781Z,7.50
2019-04-27T06:10:55.957Z,7.60
2019-04-27T06:15:31.708Z,7.70
2019-04-27T06:20:09.066Z,7.80
2019-04-27T06:24:44.973Z,7.90
2019-04-27T06:29:20.760Z,8.00
2019-04-27T06:33:56.605Z,8.10
2019-04-27T06:38:32.402Z,8.10
2019-04-27T06:43:08.671Z,8.20
2019-04-27T06:47:44.642Z,8.30
2019-04-27T06:52:20.422Z,8.20
2019-04-27T06:56:56.190Z,8.30
2019-04-27T07:01:31.951Z,8.40
2019-04-27T07:06:08.879Z,8.50
2019-04-27T07:10:45.002Z,8.60
2019-04-27T07:15:20.792Z,8.70
2019-04-27T07:19:56.609Z,8.70
2019-04-27T07:24:32.411Z,8.90
2019-04-27T07:29:09.557Z,9.00
2019-04-27T07:33:45.595Z,9.10
2019-04-27T07:38:21.364Z,9.20
2019-04-27T07:43:03.677Z,9.40
2019-04-27T07:47:41.541Z,9.50
2019-04-27T07:52:18.954Z,9.70
2019-04-27T07:56:54.789Z,9.60
2019-04-27T08:01:30.971Z,9.70
2019-04-27T08:06:08.513Z,9.70
2019-04-27T08:10:48.450Z,9.80
2019-04-27T08:15:24.124Z,9.90
2019-04-27T08:20:00.221Z,10.00
2019-04-27T08:24:35.989Z,10.10
2019-04-27T08:29:32.928Z,10.30
2019-04-27T08:34:29.483Z,10.30
2019-04-27T08:39:08.427Z,10.40
2019-04-27T08:43:44.291Z,10.50
2019-04-27T08:48:33.382Z,10.70
2019-04-27T08:52:57.546Z,11.00
2019-04-27T08:57:33.332Z,11.20
2019-04-27T09:02:10.423Z,11.30
2019-04-27T09:06:49.271Z,11.30
2019-04-27T09:11:35.334Z,11.40
2019-04-27T09:16:30.153Z,11.50
2019-04-27T09:21:06.320Z,11.70
2019-04-27T09:25:42.152Z,11.80
2019-04-27T09:30:19.102Z,11.80
2019-04-27T09:34:56.859Z,12.00
2019-04-27T09:39:32.937Z,12.20
2019-04-27T09:44:08.741Z,12.30
2019-04-27T09:48:46.384Z,12.40
2019-04-27T09:53:21.978Z,12.60
2019-04-27T09:57:57.746Z,12.50
2019-04-27T10:02:33.553Z,12.60
2019-04-27T10:07:09.333Z,12.60
2019-04-27T10:11:45.188Z,12.60
2019-04-27T10:16:20.952Z,12.80
2019-04-27T10:21:01.708Z,12.90
2019-04-27T10:25:35.531Z,12.90
2019-04-27T10:30:11.705Z,12.90
2019-04-27T10:34:47.538Z,12.90
2019-04-27T10:39:23.352Z,12.90
2019-04-27T10:43:59.118Z,12.90
2019-04-27T10:48:36.621Z,13.10
2019-04-27T10:53:12.434Z,13.20
2019-04-27T10:57:48.216Z,13.20
2019-04-27T11:02:23.997Z,13.10
2019-04-27T11:07:02.768Z,13.20
2019-04-27T11:11:38.531Z,13.00
2019-04-27T11:16:14.367Z,13.00
2019-04-27T11:20:50.121Z,13.10
2019-04-27T11:25:26.362Z,13.10
2019-04-27T11:30:02.545Z,13.10
2019-04-27T11:34:55.996Z,13.20
2019-04-27T11:39:31.860Z,13.20
2019-04-27T11:44:07.665Z,13.20
2019-04-27T11:48:43.439Z,13.20
2019-04-27T11:53:22.810Z,13.20
2019-04-27T12:02:29.984Z,13.10
2019-04-27T12:07:06.709Z,13.00
2019-04-27T12:11:42.494Z,12.90
2019-04-27T12:16:18.259Z,13.00
2019-04-27T12:20:55.792Z,13.10
2019-04-27T12:25:31.737Z,13.20
2019-04-27T12:30:28.304Z,13.20
2019-04-27T12:35:04.486Z,13.30
2019-04-27T12:39:40.273Z,13.30
2019-04-27T12:44:16.126Z,13.40
2019-04-27T12:48:54.483Z,13.70
2019-04-27T12:58:39.389Z,14.20
2019-04-27T13:03:16.060Z,14.30
2019-04-27T13:07:52.145Z,14.50
2019-04-27T13:12:27.933Z,14.60
2019-04-27T13:17:03.754Z,14.70
2019-04-27T13:21:39.534Z,14.80
2019-04-27T13:26:16.484Z,15.10
2019-04-27T13:30:52.472Z,15.10
2019-04-27T13:35:28.276Z,15.30
2019-04-27T13:40:09.440Z,15.20
2019-04-27T13:44:42.273Z,15.10
2019-04-27T13:49:26.416Z,15.10
2019-04-27T13:54:18.878Z,15.00
2019-04-27T13:58:51.393Z,14.90
2019-04-27T14:03:27.259Z,14.70
2019-04-27T14:08:03.025Z,14.50
2019-04-27T14:12:38.819Z,14.50
2019-04-27T14:17:14.612Z,14.50
2019-04-27T14:21:50.517Z,14.30
2019-04-27T14:26:26.356Z,14.20
2019-04-27T14:31:02.153Z,13.80
2019-04-27T14:35:37.931Z,13.70
2019-04-27T14:40:14.381Z,13.50
2019-04-27T14:44:51.422Z,13.40
2019-04-27T14:49:29.050Z,13.50
2019-04-27T14:54:05.588Z,14.00
2019-04-27T14:58:43.872Z,14.20
2019-04-27T15:03:20.564Z,14.60
2019-04-27T15:08:01.693Z,14.80
2019-04-27T15:12:36.400Z,15.00
2019-04-27T15:17:17.441Z,15.10
2019-04-27T15:21:58.497Z,15.00
2019-04-27T15:26:32.907Z,15.10
2019-04-27T15:31:27.091Z,15.20
2019-04-27T15:36:10.307Z,15.20
2019-04-27T15:40:50.599Z,15.30
2019-04-27T15:45:24.555Z,15.60
2019-04-27T15:50:02.406Z,15.60
2019-04-27T15:54:39.849Z,15.60
2019-04-27T15:59:18.474Z,15.50
2019-04-27T16:03:58.259Z,15.50
2019-04-27T16:08:38.194Z,15.50
2019-04-27T16:13:15.296Z,15.60
2019-04-27T16:17:55.887Z,15.40
2019-04-27T16:22:32.613Z,15.30
2019-04-27T16:27:10.363Z,15.20
2019-04-27T16:31:48.179Z,15.00
2019-04-27T16:36:26.317Z,14.70
2019-04-27T16:41:04.239Z,14.30
2019-04-27T16:45:41.781Z,13.80
2019-04-27T16:50:25.481Z,13.70
2019-04-27T16:55:00.794Z,13.50
2019-04-27T16:59:44.075Z,13.40
2019-04-27T17:04:18.534Z,12.90
2019-04-27T17:08:57.635Z,12.20
2019-04-27T17:13:35.826Z,10.90
2019-04-27T17:18:38.453Z,10.40
2019-04-27T17:23:17.484Z,10.30
2019-04-27T17:28:04.084Z,10.40
2019-04-27T17:33:10.537Z,10.40
2019-04-27T17:37:41.620Z,10.60
2019-04-27T17:42:22.837Z,10.60
2019-04-27T17:46:59.326Z,10.70
2019-04-27T17:51:40.629Z,10.70
2019-04-27T17:56:15.707Z,10.70
2019-04-27T18:00:53.239Z,10.70
2019-04-27T18:05:29.353Z,10.80
2019-04-27T18:10:06.112Z,10.80
2019-04-27T18:14:41.874Z,10.80
2019-04-27T18:19:44.257Z,10.50
2019-04-27T18:24:25.039Z,10.30
2019-04-27T18:29:01.600Z,10.40
2019-04-27T18:33:38.260Z,10.50
2019-04-27T18:38:14.216Z,10.50
2019-04-27T18:42:49.989Z,10.40
2019-04-27T18:47:26.496Z,10.30
2019-04-27T18:52:27.800Z,10.40
2019-04-27T18:57:04.958Z,10.30
2019-04-27T19:01:52.189Z,10.40
2019-04-27T19:06:28.990Z,10.30
2019-04-27T19:11:05.194Z,10.40
2019-04-27T19:15:41.471Z,10.40
2019-04-27T19:20:18.619Z,10.40
2019-04-27T19:24:55.073Z,10.10
2019-04-27T19:29:43.453Z,10.00
2019-04-27T19:34:19.427Z,10.00
2019-04-27T19:38:55.927Z,9.70
2019-04-27T19:43:33.908Z,9.60
2019-04-27T19:48:10.938Z,9.60
2019-04-27T19:52:50.195Z,9.60
2019-04-27T19:57:36.102Z,9.50
2019-04-27T20:02:11.765Z,9.40
2019-04-27T20:06:48.735Z,9.40
2019-04-27T20:11:25.472Z,9.20
2019-04-27T20:16:02.268Z,9.10
2019-04-27T20:20:39.200Z,9.10
2019-04-27T20:25:16.278Z,9.30
2019-04-27T20:30:03.178Z,9.30
2019-04-27T20:34:42.837Z,9.40
2019-04-27T20:39:21.413Z,9.50
2019-04-27T20:43:57.940Z,9.50
2019-04-27T20:48:33.895Z,9.50
2019-04-27T20:53:13.870Z,9.40
2019-04-27T20:57:59.572Z,9.30
2019-04-27T21:02:38.306Z,9.50
2019-04-27T21:07:16.737Z,9.50
2019-04-27T21:11:53.957Z,9.40
2019-04-27T21:16:31.421Z,9.20
2019-04-27T21:21:08.496Z,9.10
2019-04-27T21:25:46.472Z,9.30
2019-04-27T21:30:24.986Z,9.30
2019-04-27T21:35:02.860Z,9.20
2019-04-27T21:39:40.487Z,9.10
2019-04-27T21:44:17.969Z,8.80
2019-04-27T21:48:55.815Z,8.90
2019-04-27T21:53:53.439Z,8.90
2019-04-27T21:58:33.230Z,8.90
2019-04-27T22:03:11.478Z,8.90
2019-04-27T22:07:49.235Z,8.80
2019-04-27T22:12:26.581Z,8.50
2019-04-27T22:17:04.790Z,8.10
2019-04-27T22:21:42.507Z,8.10
2019-04-27T22:26:21.333Z,8.30
2019-04-27T22:30:57.772Z,8.20
2019-04-27T22:35:34.209Z,8.10
2019-04-27T22:40:25.810Z,8.00
2019-04-27T22:45:20.536Z,7.60
2019-04-27T22:49:56.938Z,7.10
2019-04-27T22:54:32.696Z,7.10
2019-04-27T22:59:21.441Z,7.30
2019-04-27T23:03:59.386Z,7.50
2019-04-27T23:08:35.165Z,7.50
2019-04-27T23:13:11.860Z,7.60
2019-04-27T23:17:55.822Z,7.30
2019-04-27T23:22:31.634Z,7.40
2019-04-27T23:27:07.502Z,7.40
2019-04-27T23:32:02.209Z,7.50
2019-04-27T23:36:38.004Z,7.60
2019-04-27T23:41:14.952Z,7.50
2019-04-27T23:45:51.623Z,7.60
2019-04-27T23:50:29.154Z,7.70
2019-04-27T23:55:05.160Z,7.80
2019-04-27T23:59:41.582Z,7.80
